createdAt,value
2018-09-23T00:00:20.914Z,99.90
2018-09-23T00:02:49.404Z,99.90
2018-09-23T00:05:17.915Z,99.90
2018-09-23T00:07:46.431Z,99.90
2018-09-23T00:10:14.955Z,99.90
2018-09-23T00:12:43.472Z,99.90
2018-09-23T00:15:12.056Z,99.90
2018-09-23T00:17:40.605Z,99.90
2018-09-23T00:20:09.126Z,99.90
2018-09-23T00:22:37.656Z,99.90
2018-09-23T00:25:06.250Z,99.90
2018-09-23T00:27:34.736Z,99.90
2018-09-23T00:30:03.268Z,99.90
2018-09-23T00:32:31.744Z,99.90
2018-09-23T00:35:00.251Z,99.90
2018-09-23T00:37:28.728Z,99.90
2018-09-23T00:39:57.229Z,99.90
2018-09-23T00:42:25.747Z,99.90
2018-09-23T00:44:54.287Z,99.90
2018-09-23T00:47:22.802Z,99.90
2018-09-23T00:49:51.327Z,99.90
2018-09-23T00:52:19.835Z,99.90
2018-09-23T00:54:48.363Z,99.90
2018-09-23T00:57:16.874Z,99.90
2018-09-23T00:59:45.372Z,99.90
2018-09-23T01:02:13.890Z,99.90
2018-09-23T01:04:42.394Z,99.90
2018-09-23T01:07:10.908Z,99.90
2018-09-23T01:09:39.399Z,99.90
2018-09-23T01:12:07.948Z,99.90
2018-09-23T01:14:36.447Z,99.90
2018-09-23T01:17:04.962Z,99.90
2018-09-23T01:19:33.468Z,99.90
2018-09-23T01:22:01.963Z,99.90
2018-09-23T01:24:30.474Z,99.90
2018-09-23T01:26:58.954Z,99.90
2018-09-23T01:29:27.483Z,99.90
2018-09-23T01:31:56.007Z,99.90
2018-09-23T01:34:24.564Z,99.90
2018-09-23T01:36:53.104Z,99.90
2018-09-23T01:39:21.611Z,99.90
2018-09-23T01:41:50.111Z,99.90
2018-09-23T01:44:18.661Z,99.90
2018-09-23T01:46:47.139Z,99.90
2018-09-23T01:49:15.635Z,99.90
2018-09-23T01:51:44.131Z,99.90
2018-09-23T01:54:12.621Z,99.90
2018-09-23T01:56:41.124Z,99.90
2018-09-23T01:59:09.635Z,99.90
2018-09-23T02:01:38.135Z,99.90
2018-09-23T02:04:06.590Z,99.90
2018-09-23T02:06:35.071Z,99.90
2018-09-23T02:09:04.289Z,99.90
2018-09-23T02:11:32.810Z,99.90
2018-09-23T02:14:01.316Z,99.90
2018-09-23T02:16:29.936Z,99.90
2018-09-23T02:18:58.450Z,99.90
2018-09-23T02:21:27.355Z,99.90
2018-09-23T02:23:55.904Z,99.90
2018-09-23T02:26:24.403Z,99.90
2018-09-23T02:28:52.931Z,99.90
2018-09-23T02:31:21.441Z,99.90
2018-09-23T02:33:49.935Z,99.90
2018-09-23T02:36:18.431Z,99.90
2018-09-23T02:38:46.952Z,99.90
2018-09-23T02:41:15.471Z,99.90
2018-09-23T02:43:44.062Z,99.90
2018-09-23T02:46:12.608Z,99.90
2018-09-23T02:48:41.126Z,99.90
2018-09-23T02:51:09.645Z,99.90
2018-09-23T02:53:38.140Z,99.90
2018-09-23T02:56:06.628Z,99.90
2018-09-23T02:58:35.132Z,99.90
2018-09-23T03:01:03.683Z,99.90
2018-09-23T03:03:32.196Z,99.90
2018-09-23T03:06:00.724Z,99.90
2018-09-23T03:08:29.215Z,99.90
2018-09-23T03:10:57.668Z,99.90
2018-09-23T03:13:26.223Z,99.90
2018-09-23T03:15:54.711Z,99.90
2018-09-23T03:18:23.215Z,99.90
2018-09-23T03:20:51.757Z,99.90
2018-09-23T03:23:20.255Z,99.90
2018-09-23T03:25:48.743Z,99.90
2018-09-23T03:28:17.239Z,99.90
2018-09-23T03:30:45.739Z,99.90
2018-09-23T03:33:14.263Z,99.90
2018-09-23T03:35:42.785Z,99.90
2018-09-23T03:38:11.286Z,99.90
2018-09-23T03:40:39.803Z,99.90
2018-09-23T03:43:08.343Z,99.90
2018-09-23T03:45:36.887Z,99.90
2018-09-23T03:48:05.407Z,99.90
2018-09-23T03:50:33.943Z,99.90
2018-09-23T03:53:02.447Z,99.90
2018-09-23T03:55:30.928Z,99.90
2018-09-23T03:57:59.506Z,99.90
2018-09-23T04:00:27.998Z,99.90
2018-09-23T04:02:56.482Z,99.90
2018-09-23T04:05:25.027Z,99.90
2018-09-23T04:07:53.519Z,99.90
2018-09-23T04:10:22.003Z,99.90
2018-09-23T04:12:50.463Z,99.90
2018-09-23T04:15:19.006Z,99.90
2018-09-23T04:17:47.486Z,99.90
2018-09-23T04:20:16.039Z,99.90
2018-09-23T04:22:51.668Z,99.90
2018-09-23T04:25:21.455Z,99.90
2018-09-23T04:27:50.467Z,99.90
2018-09-23T04:30:20.503Z,99.90
2018-09-23T04:32:49.255Z,99.90
2018-09-23T04:35:18.584Z,99.90
2018-09-23T04:37:47.766Z,99.90
2018-09-23T04:40:16.266Z,99.90
2018-09-23T04:42:44.783Z,99.90
2018-09-23T04:45:13.275Z,99.90
2018-09-23T04:47:41.767Z,99.90
2018-09-23T04:50:10.400Z,99.90
2018-09-23T04:52:38.916Z,99.90
2018-09-23T04:55:07.466Z,99.90
2018-09-23T04:57:35.976Z,99.90
2018-09-23T05:00:04.540Z,99.90
2018-09-23T05:02:33.025Z,99.90
2018-09-23T05:05:01.571Z,99.90
2018-09-23T05:07:30.117Z,99.90
2018-09-23T05:09:58.606Z,99.90
2018-09-23T05:12:27.132Z,99.90
2018-09-23T05:14:55.672Z,99.90
2018-09-23T05:17:24.159Z,99.90
2018-09-23T05:19:52.659Z,99.90
2018-09-23T05:22:21.185Z,99.90
2018-09-23T05:24:49.696Z,99.90
2018-09-23T05:27:18.227Z,99.90
2018-09-23T05:29:46.756Z,99.90
2018-09-23T05:32:15.259Z,99.90
2018-09-23T05:34:43.771Z,99.90
2018-09-23T05:37:12.311Z,99.90
2018-09-23T05:39:40.863Z,99.90
2018-09-23T05:42:09.428Z,99.90
2018-09-23T05:44:37.926Z,99.90
2018-09-23T05:47:06.464Z,99.90
2018-09-23T05:49:34.995Z,99.90
2018-09-23T05:52:04.239Z,99.90
2018-09-23T05:54:32.748Z,99.90
2018-09-23T05:57:01.238Z,99.90
2018-09-23T05:59:29.771Z,99.90
2018-09-23T06:01:58.256Z,99.90
2018-09-23T06:04:26.741Z,99.90
2018-09-23T06:06:55.247Z,99.90
2018-09-23T06:09:23.777Z,99.90
2018-09-23T06:11:52.280Z,99.90
2018-09-23T06:14:20.811Z,99.90
2018-09-23T06:16:49.346Z,99.90
2018-09-23T06:19:17.927Z,99.90
2018-09-23T06:21:46.491Z,99.90
2018-09-23T06:24:14.972Z,99.90
2018-09-23T06:26:43.475Z,99.90
2018-09-23T06:29:11.977Z,99.90
2018-09-23T06:31:40.495Z,99.90
2018-09-23T06:34:09.037Z,99.90
2018-09-23T06:36:37.603Z,99.90
2018-09-23T06:39:07.583Z,99.90
2018-09-23T06:41:36.124Z,99.90
2018-09-23T06:44:04.626Z,99.90
2018-09-23T06:46:33.155Z,99.90
2018-09-23T06:49:01.661Z,99.90
2018-09-23T06:51:30.168Z,99.90
2018-09-23T06:53:58.703Z,99.90
2018-09-23T06:56:27.235Z,99.90
2018-09-23T06:58:55.742Z,99.90
2018-09-23T07:01:24.272Z,99.90
2018-09-23T07:03:52.840Z,99.90
2018-09-23T07:06:21.348Z,99.90
2018-09-23T07:08:49.854Z,99.90
2018-09-23T07:11:18.355Z,99.90
2018-09-23T07:13:46.843Z,99.90
2018-09-23T07:16:15.362Z,99.90
2018-09-23T07:18:43.944Z,99.90
2018-09-23T07:21:12.483Z,99.90
2018-09-23T07:23:41.077Z,99.90
2018-09-23T07:26:09.557Z,99.90
2018-09-23T07:28:38.081Z,99.90
2018-09-23T07:31:07.145Z,99.90
2018-09-23T07:33:35.739Z,99.90
2018-09-23T07:36:04.240Z,99.90
2018-09-23T07:38:32.791Z,99.90
2018-09-23T07:41:01.304Z,99.90
2018-09-23T07:43:29.811Z,99.90
2018-09-23T07:45:58.332Z,99.90
2018-09-23T07:48:26.864Z,99.90
2018-09-23T07:50:55.364Z,99.90
2018-09-23T07:53:23.868Z,99.90
2018-09-23T07:55:52.501Z,99.90
2018-09-23T07:58:21.016Z,99.90
2018-09-23T08:00:49.571Z,99.90
2018-09-23T08:03:18.105Z,99.90
2018-09-23T08:05:46.603Z,99.90
2018-09-23T08:08:15.083Z,99.90
2018-09-23T08:10:43.677Z,99.90
2018-09-23T08:13:12.335Z,99.90
2018-09-23T08:15:40.736Z,99.90
2018-09-23T08:18:09.623Z,99.90
2018-09-23T08:20:38.219Z,99.90
2018-09-23T08:23:06.771Z,99.90
2018-09-23T08:25:35.339Z,99.90
2018-09-23T08:28:03.870Z,99.90
2018-09-23T08:30:32.379Z,99.90
2018-09-23T08:33:00.957Z,99.90
2018-09-23T08:35:29.392Z,99.90
2018-09-23T08:37:57.926Z,99.90
2018-09-23T08:40:26.432Z,99.90
2018-09-23T08:42:56.654Z,99.90
2018-09-23T08:45:26.846Z,99.90
2018-09-23T08:47:57.112Z,99.90
2018-09-23T08:50:27.246Z,99.90
2018-09-23T08:52:57.656Z,99.90
2018-09-23T08:55:26.221Z,99.90
2018-09-23T08:57:54.703Z,99.90
2018-09-23T09:00:23.449Z,99.90
2018-09-23T09:02:52.075Z,99.90
2018-09-23T09:05:20.620Z,99.90
2018-09-23T09:07:49.117Z,99.90
2018-09-23T09:10:17.651Z,99.90
2018-09-23T09:12:46.142Z,99.90
2018-09-23T09:15:14.663Z,99.90
2018-09-23T09:17:43.180Z,99.90
2018-09-23T09:20:11.714Z,99.90
2018-09-23T09:22:40.227Z,99.90
2018-09-23T09:25:08.747Z,99.90
2018-09-23T09:27:37.252Z,99.90
2018-09-23T09:30:06.204Z,99.90
2018-09-23T09:32:34.722Z,99.90
2018-09-23T09:35:03.214Z,99.90
2018-09-23T09:37:31.737Z,99.90
2018-09-23T09:40:00.229Z,99.90
2018-09-23T09:42:28.717Z,99.90
2018-09-23T09:44:57.232Z,99.90
2018-09-23T09:47:25.733Z,99.90
2018-09-23T09:49:54.356Z,99.90
2018-09-23T09:52:22.843Z,99.90
2018-09-23T09:54:51.400Z,99.90
2018-09-23T09:57:19.913Z,99.90
2018-09-23T09:59:48.432Z,99.90
2018-09-23T10:02:17.063Z,99.90
2018-09-23T10:04:45.564Z,99.90
2018-09-23T10:07:14.064Z,99.90
2018-09-23T10:09:43.464Z,99.90
2018-09-23T10:12:11.966Z,99.90
2018-09-23T10:14:40.454Z,99.90
2018-09-23T10:17:08.969Z,99.90
2018-09-23T10:19:37.475Z,99.90
2018-09-23T10:22:06.144Z,99.90
2018-09-23T10:24:34.639Z,99.90
2018-09-23T10:27:03.154Z,99.90
2018-09-23T10:29:31.648Z,99.90
2018-09-23T10:32:00.144Z,99.90
2018-09-23T10:34:28.672Z,99.90
2018-09-23T10:36:57.190Z,99.90
2018-09-23T10:39:25.732Z,99.90
2018-09-23T10:41:54.239Z,99.90
2018-09-23T10:44:22.734Z,99.90
2018-09-23T10:46:51.563Z,99.90
2018-09-23T10:49:20.099Z,99.90
2018-09-23T10:51:48.637Z,99.90
2018-09-23T10:54:17.179Z,99.90
2018-09-23T10:56:45.711Z,99.90
2018-09-23T10:59:14.199Z,99.90
2018-09-23T11:01:42.760Z,99.90
2018-09-23T11:04:11.280Z,99.90
2018-09-23T11:06:39.804Z,99.90
2018-09-23T11:09:08.359Z,99.90
2018-09-23T11:11:36.936Z,99.90
2018-09-23T11:14:05.495Z,99.90
2018-09-23T11:16:34.019Z,99.90
2018-09-23T11:19:02.490Z,99.90
2018-09-23T11:21:31.002Z,99.90
2018-09-23T11:23:59.540Z,99.90
2018-09-23T11:26:28.062Z,99.90
2018-09-23T11:28:56.617Z,99.90
2018-09-23T11:31:25.159Z,99.90
2018-09-23T11:33:53.684Z,99.90
2018-09-23T11:36:22.267Z,99.90
2018-09-23T11:38:50.823Z,99.90
2018-09-23T11:41:19.340Z,99.90
2018-09-23T11:43:47.860Z,99.90
2018-09-23T11:46:16.352Z,99.50
2018-09-23T11:48:44.836Z,99.70
2018-09-23T11:51:13.367Z,98.50
2018-09-23T11:53:41.888Z,98.70
2018-09-23T11:56:10.424Z,99.80
2018-09-23T11:58:38.940Z,99.90
2018-09-23T12:01:07.555Z,99.90
2018-09-23T12:03:36.064Z,99.90
2018-09-23T12:06:04.588Z,99.90
2018-09-23T12:08:33.108Z,98.30
2018-09-23T12:11:01.761Z,99.90
2018-09-23T12:13:30.160Z,99.90
2018-09-23T12:15:58.666Z,99.90
2018-09-23T12:18:27.181Z,99.90
2018-09-23T12:20:55.674Z,99.90
2018-09-23T12:23:24.183Z,99.90
2018-09-23T12:25:52.715Z,99.90
2018-09-23T12:28:21.247Z,99.90
2018-09-23T12:30:49.805Z,99.90
2018-09-23T12:33:18.378Z,99.90
2018-09-23T12:35:46.892Z,99.90
2018-09-23T12:38:15.548Z,99.90
2018-09-23T12:40:44.448Z,99.90
2018-09-23T12:43:12.966Z,99.90
2018-09-23T12:45:41.513Z,99.90
2018-09-23T12:48:10.163Z,99.90
2018-09-23T12:50:38.706Z,99.90
2018-09-23T12:53:07.236Z,99.90
2018-09-23T12:55:35.761Z,99.90
2018-09-23T12:58:04.304Z,99.90
2018-09-23T13:00:32.880Z,99.90
2018-09-23T13:03:01.384Z,99.90
2018-09-23T13:05:29.888Z,99.90
2018-09-23T13:07:58.432Z,98.90
2018-09-23T13:10:26.943Z,97.20
2018-09-23T13:12:55.461Z,98.60
2018-09-23T13:15:24.011Z,98.10
2018-09-23T13:17:52.704Z,98.80
2018-09-23T13:20:21.233Z,94.90
2018-09-23T13:22:49.780Z,96.10
2018-09-23T13:25:18.307Z,93.70
2018-09-23T13:27:46.819Z,94.30
2018-09-23T13:30:15.476Z,95.00
2018-09-23T13:32:43.981Z,94.50
2018-09-23T13:35:12.530Z,95.90
2018-09-23T13:37:41.043Z,93.40
2018-09-23T13:40:09.608Z,92.20
2018-09-23T13:42:38.063Z,93.00
2018-09-23T13:45:06.565Z,93.60
2018-09-23T13:47:35.052Z,93.30
2018-09-23T13:50:03.617Z,93.60
2018-09-23T13:52:32.121Z,92.60
2018-09-23T13:55:00.659Z,91.30
2018-09-23T13:57:29.193Z,92.10
2018-09-23T13:59:57.679Z,94.50
2018-09-23T14:02:26.231Z,95.60
2018-09-23T14:04:54.740Z,95.90
2018-09-23T14:07:23.236Z,95.20
2018-09-23T14:09:51.732Z,94.60
2018-09-23T14:12:20.252Z,98.30
2018-09-23T14:14:48.761Z,93.10
2018-09-23T14:17:17.276Z,95.90
2018-09-23T14:19:45.843Z,93.60
2018-09-23T14:22:14.354Z,93.50
2018-09-23T14:24:42.889Z,94.60
2018-09-23T14:27:11.381Z,96.80
2018-09-23T14:29:39.895Z,93.90
2018-09-23T14:32:08.432Z,92.30
2018-09-23T14:34:37.488Z,90.00
2018-09-23T14:37:06.122Z,88.60
2018-09-23T14:39:34.657Z,90.00
2018-09-23T14:42:03.180Z,89.50
2018-09-23T14:44:31.695Z,89.10
2018-09-23T14:47:00.207Z,89.30
2018-09-23T14:49:28.904Z,90.40
2018-09-23T14:51:57.440Z,89.80
2018-09-23T14:54:25.987Z,89.40
2018-09-23T14:56:54.480Z,89.90
2018-09-23T14:59:23.052Z,90.10
2018-09-23T15:01:51.636Z,90.50
2018-09-23T15:04:20.128Z,91.00
2018-09-23T15:06:48.647Z,91.60
2018-09-23T15:09:17.192Z,91.50
2018-09-23T15:11:45.687Z,91.50
2018-09-23T15:14:14.267Z,91.70
2018-09-23T15:16:42.675Z,92.50
2018-09-23T15:19:11.167Z,93.40
2018-09-23T15:21:39.729Z,93.50
2018-09-23T15:24:08.195Z,94.10
2018-09-23T15:26:36.716Z,94.20
2018-09-23T15:29:05.347Z,93.50
2018-09-23T15:31:33.821Z,93.30
2018-09-23T15:34:02.304Z,93.70
2018-09-23T15:36:30.783Z,92.80
2018-09-23T15:38:59.296Z,92.30
2018-09-23T15:41:27.804Z,92.40
2018-09-23T15:43:56.278Z,92.50
2018-09-23T15:46:24.804Z,91.90
2018-09-23T15:48:53.315Z,92.80
2018-09-23T15:51:21.795Z,91.40
2018-09-23T15:53:50.316Z,91.10
2018-09-23T15:56:18.804Z,91.00
2018-09-23T15:58:47.298Z,91.50
2018-09-23T16:01:15.848Z,91.10
2018-09-23T16:03:44.372Z,91.10
2018-09-23T16:06:13.078Z,91.40
2018-09-23T16:08:41.770Z,92.20
2018-09-23T16:11:10.918Z,92.40
2018-09-23T16:13:39.823Z,91.60
2018-09-23T16:16:08.399Z,92.20
2018-09-23T16:18:36.975Z,91.80
2018-09-23T16:21:05.894Z,93.00
2018-09-23T16:23:34.421Z,92.60
2018-09-23T16:26:03.700Z,92.70
2018-09-23T16:28:32.209Z,93.20
2018-09-23T16:31:00.793Z,92.70
2018-09-23T16:33:29.307Z,92.50
2018-09-23T16:35:57.940Z,93.30
2018-09-23T16:38:26.487Z,93.60
2018-09-23T16:40:54.979Z,93.90
2018-09-23T16:43:23.467Z,94.00
2018-09-23T16:45:52.011Z,93.70
2018-09-23T16:48:20.479Z,93.10
2018-09-23T16:50:48.992Z,93.80
2018-09-23T16:53:17.479Z,94.20
2018-09-23T16:55:46.079Z,94.10
2018-09-23T16:58:15.953Z,94.20
2018-09-23T17:00:44.630Z,94.00
2018-09-23T17:03:12.977Z,94.00
2018-09-23T17:05:41.483Z,94.00
2018-09-23T17:08:09.972Z,93.90
2018-09-23T17:10:38.441Z,93.70
2018-09-23T17:13:06.934Z,93.30
2018-09-23T17:15:35.419Z,93.60
2018-09-23T17:18:04.069Z,93.20
2018-09-23T17:20:32.604Z,93.60
2018-09-23T17:23:01.089Z,93.40
2018-09-23T17:25:29.618Z,93.50
2018-09-23T17:27:58.130Z,92.80
2018-09-23T17:30:26.656Z,92.80
2018-09-23T17:32:55.271Z,92.70
2018-09-23T17:35:23.915Z,92.60
2018-09-23T17:37:52.395Z,92.40
2018-09-23T17:40:20.891Z,92.80
2018-09-23T17:42:49.416Z,92.00
2018-09-23T17:45:17.927Z,91.80
2018-09-23T17:47:46.605Z,92.00
2018-09-23T17:50:15.221Z,91.10
2018-09-23T17:52:44.256Z,91.30
2018-09-23T17:55:12.740Z,91.10
2018-09-23T17:57:41.663Z,91.00
2018-09-23T18:00:10.244Z,90.70
2018-09-23T18:02:38.756Z,91.30
2018-09-23T18:05:07.319Z,91.00
2018-09-23T18:07:35.834Z,91.00
2018-09-23T18:10:04.415Z,90.80
2018-09-23T18:12:32.982Z,90.70
2018-09-23T18:15:01.809Z,90.50
2018-09-23T18:17:30.358Z,91.00
2018-09-23T18:19:59.692Z,91.10
2018-09-23T18:22:28.211Z,91.50
2018-09-23T18:24:56.771Z,91.70
2018-09-23T18:27:25.260Z,92.00
2018-09-23T18:29:53.826Z,92.00
2018-09-23T18:32:22.308Z,92.00
2018-09-23T18:34:50.783Z,92.30
2018-09-23T18:37:19.575Z,92.50
2018-09-23T18:39:47.999Z,92.70
2018-09-23T18:42:16.525Z,93.30
2018-09-23T18:44:45.052Z,93.10
2018-09-23T18:47:13.579Z,93.60
2018-09-23T18:49:42.153Z,93.90
2018-09-23T18:52:10.667Z,93.50
2018-09-23T18:54:44.576Z,93.40
2018-09-23T18:57:13.214Z,93.80
2018-09-23T18:59:41.749Z,93.80
2018-09-23T19:02:10.291Z,93.10
2018-09-23T19:04:38.845Z,93.20
2018-09-23T19:07:07.375Z,92.80
2018-09-23T19:09:35.906Z,92.90
2018-09-23T19:12:04.479Z,93.00
2018-09-23T19:14:33.241Z,93.80
2018-09-23T19:17:01.743Z,94.40
2018-09-23T19:19:35.620Z,94.50
2018-09-23T19:22:06.410Z,94.80
2018-09-23T19:24:35.393Z,94.70
2018-09-23T19:27:03.960Z,95.10
2018-09-23T19:29:34.302Z,95.00
2018-09-23T19:32:02.888Z,95.50
2018-09-23T19:34:32.268Z,95.10
2018-09-23T19:37:00.804Z,95.10
2018-09-23T19:39:29.323Z,95.70
2018-09-23T19:41:58.123Z,96.20
2018-09-23T19:44:26.619Z,97.80
2018-09-23T20:23:30.481Z,99.90
2018-09-23T20:25:59.043Z,99.90
2018-09-23T20:28:27.592Z,99.90
2018-09-23T20:30:56.134Z,99.90
2018-09-23T20:33:24.897Z,99.90
2018-09-23T20:35:53.463Z,99.90
2018-09-23T20:38:21.968Z,99.90
2018-09-23T20:40:50.456Z,99.90
2018-09-23T20:43:19.018Z,99.90
2018-09-23T20:45:47.543Z,99.90
2018-09-23T20:48:16.031Z,99.90
2018-09-23T20:50:44.691Z,99.90
2018-09-23T20:53:13.236Z,99.90
2018-09-23T20:55:41.795Z,99.90
2018-09-23T20:58:10.316Z,99.90
2018-09-23T21:00:39.130Z,99.90
2018-09-23T21:03:07.645Z,99.90
2018-09-23T21:05:36.144Z,99.90
2018-09-23T21:08:04.692Z,99.90
2018-09-23T21:10:33.204Z,99.90
2018-09-23T21:13:01.723Z,99.90
2018-09-23T21:15:30.272Z,99.90
2018-09-23T21:17:58.800Z,99.90
2018-09-23T21:20:27.295Z,99.90
2018-09-23T21:22:55.843Z,99.90
2018-09-23T21:25:24.361Z,99.90
2018-09-23T21:27:52.884Z,99.90
2018-09-23T21:30:21.396Z,99.90
2018-09-23T21:32:49.919Z,99.90
2018-09-23T21:35:18.424Z,99.90
2018-09-23T21:37:46.963Z,99.90
2018-09-23T21:40:15.484Z,99.90
2018-09-23T21:42:43.976Z,99.90
2018-09-23T21:45:12.535Z,99.90
2018-09-23T21:47:41.039Z,99.90
2018-09-23T21:50:09.604Z,99.90
2018-09-23T21:52:38.119Z,99.90
2018-09-23T21:55:06.625Z,99.90
2018-09-23T21:57:35.121Z,99.90
2018-09-23T22:00:03.804Z,99.90
2018-09-23T22:02:32.334Z,99.90
2018-09-23T22:05:00.836Z,99.90
2018-09-23T22:07:29.399Z,99.90
2018-09-23T22:09:57.908Z,99.90
2018-09-23T22:12:26.371Z,99.90
2018-09-23T22:14:54.880Z,99.90
2018-09-23T22:17:23.405Z,99.90
2018-09-23T22:19:51.916Z,99.90
2018-09-23T22:22:20.459Z,99.90
2018-09-23T22:24:48.940Z,99.90
2018-09-23T22:27:17.399Z,99.90
2018-09-23T22:29:45.908Z,99.90
2018-09-23T22:32:14.390Z,99.90
2018-09-23T22:34:42.855Z,99.90
2018-09-23T22:37:11.391Z,99.90
2018-09-23T22:39:39.892Z,99.90
2018-09-23T22:42:08.407Z,99.90
2018-09-23T22:44:36.916Z,99.90
2018-09-23T22:47:05.433Z,99.90
2018-09-23T22:49:33.940Z,99.90
2018-09-23T22:52:02.455Z,99.90
2018-09-23T22:54:30.933Z,99.90
2018-09-23T22:56:59.460Z,99.90
2018-09-23T22:59:28.006Z,99.90
2018-09-23T23:01:56.512Z,99.90
2018-09-23T23:04:25.090Z,99.90
2018-09-23T23:06:53.580Z,99.90
2018-09-23T23:09:22.092Z,99.90
2018-09-23T23:11:50.589Z,99.90
2018-09-23T23:14:19.103Z,99.90
2018-09-23T23:16:47.619Z,99.90
2018-09-23T23:19:16.139Z,99.90
2018-09-23T23:21:44.685Z,99.90
2018-09-23T23:24:13.180Z,99.90
2018-09-23T23:26:41.725Z,99.90
2018-09-23T23:29:10.203Z,99.90
2018-09-23T23:31:38.719Z,99.90
2018-09-23T23:34:07.247Z,99.90
2018-09-23T23:36:35.772Z,99.90
2018-09-23T23:39:05.805Z,99.90
2018-09-23T23:41:34.341Z,99.90
2018-09-23T23:44:02.887Z,99.90
2018-09-23T23:46:31.396Z,99.90
2018-09-23T23:48:59.904Z,99.90
2018-09-23T23:51:28.471Z,99.90
2018-09-23T23:53:57.025Z,99.90
2018-09-23T23:56:25.559Z,99.90
2018-09-23T23:58:54.132Z,99.90
